createdAt,value
2017-09-12T00:01:39.445Z,2.00
2017-09-12T00:04:07.733Z,1.70
2017-09-12T00:06:35.458Z,2.03
2017-09-12T00:09:04.302Z,1.90
2017-09-12T00:11:32.251Z,2.20
2017-09-12T00:14:00.042Z,1.90
2017-09-12T00:16:27.717Z,2.10
2017-09-12T00:18:55.666Z,1.90
2017-09-12T00:21:23.526Z,2.83
2017-09-12T00:23:51.530Z,3.27
2017-09-12T00:26:19.379Z,2.60
2017-09-12T00:28:47.283Z,2.30
2017-09-12T00:31:16.629Z,2.27
2017-09-12T00:33:44.512Z,1.97
2017-09-12T00:36:12.295Z,2.90
2017-09-12T00:38:40.916Z,2.47
2017-09-12T00:41:08.816Z,1.90
2017-09-12T00:43:37.498Z,2.77
2017-09-12T00:46:05.523Z,2.17
2017-09-12T00:48:34.103Z,2.00
2017-09-12T00:51:02.752Z,1.60
2017-09-12T00:53:30.578Z,2.57
2017-09-12T00:55:58.468Z,1.87
2017-09-12T00:58:27.078Z,2.10
2017-09-12T01:00:55.740Z,2.43
2017-09-12T01:03:24.862Z,2.00
2017-09-12T01:05:53.928Z,1.90
2017-09-12T01:08:21.812Z,2.77
2017-09-12T01:10:49.671Z,2.93
2017-09-12T01:13:17.538Z,2.40
2017-09-12T01:15:45.601Z,2.20
2017-09-12T01:18:13.699Z,2.80
2017-09-12T01:20:43.004Z,2.17
2017-09-12T01:23:10.846Z,2.30
2017-09-12T01:25:38.926Z,2.73
2017-09-12T01:28:06.799Z,2.83
2017-09-12T01:30:34.658Z,2.47
2017-09-12T01:33:02.711Z,2.20
2017-09-12T01:35:30.493Z,1.90
2017-09-12T01:37:59.425Z,2.53
2017-09-12T01:40:28.160Z,2.63
2017-09-12T01:42:56.327Z,2.37
2017-09-12T01:45:24.311Z,2.20
2017-09-12T01:47:52.157Z,2.20
2017-09-12T01:50:20.134Z,1.97
2017-09-12T01:52:47.983Z,2.20
2017-09-12T01:55:15.774Z,2.13
2017-09-12T01:57:43.535Z,1.90
2017-09-12T02:00:11.396Z,2.00
2017-09-12T02:02:39.285Z,1.97
2017-09-12T02:05:07.223Z,2.10
2017-09-12T02:07:35.028Z,2.47
2017-09-12T02:10:03.705Z,2.13
2017-09-12T02:12:32.190Z,2.60
2017-09-12T02:15:00.048Z,2.50
2017-09-12T02:17:28.023Z,3.03
2017-09-12T02:19:55.872Z,3.00
2017-09-12T02:22:23.746Z,2.60
2017-09-12T02:24:51.536Z,2.33
2017-09-12T02:27:20.367Z,2.80
2017-09-12T02:29:48.311Z,2.60
2017-09-12T02:32:16.521Z,2.30
2017-09-12T02:34:44.388Z,2.30
2017-09-12T02:37:12.474Z,2.73
2017-09-12T02:39:40.345Z,3.03
2017-09-12T02:42:08.227Z,2.90
2017-09-12T02:44:35.976Z,2.50
2017-09-12T02:47:03.878Z,2.60
2017-09-12T02:49:32.574Z,2.70
2017-09-12T02:52:01.298Z,2.90
2017-09-12T02:54:29.246Z,2.60
2017-09-12T02:56:57.677Z,2.60
2017-09-12T02:59:25.407Z,2.90
2017-09-12T03:01:53.183Z,3.07
2017-09-12T03:04:20.953Z,3.30
2017-09-12T03:06:48.804Z,3.73
2017-09-12T03:09:16.778Z,2.63
2017-09-12T03:11:44.569Z,2.60
2017-09-12T03:14:12.399Z,3.27
2017-09-12T03:16:40.264Z,2.90
2017-09-12T03:19:08.014Z,2.33
2017-09-12T03:21:35.918Z,2.10
2017-09-12T03:24:03.786Z,2.30
2017-09-12T03:26:31.755Z,2.27
2017-09-12T03:28:59.910Z,2.30
2017-09-12T03:31:27.640Z,2.73
2017-09-12T03:33:55.464Z,2.50
2017-09-12T03:36:24.222Z,2.57
2017-09-12T03:38:51.997Z,2.43
2017-09-12T03:41:20.070Z,3.07
2017-09-12T03:43:48.338Z,2.00
2017-09-12T03:46:16.249Z,2.43
2017-09-12T03:48:45.862Z,2.00
2017-09-12T03:51:15.011Z,2.90
2017-09-12T03:53:43.152Z,2.60
2017-09-12T03:56:12.681Z,2.10
2017-09-12T03:58:40.546Z,2.60
2017-09-12T04:01:09.340Z,2.40
2017-09-12T04:03:37.162Z,2.40
2017-09-12T04:06:05.803Z,2.20
2017-09-12T04:08:34.518Z,2.70
2017-09-12T04:11:03.182Z,2.37
2017-09-12T04:13:31.128Z,2.87
2017-09-12T04:15:59.482Z,3.23
2017-09-12T04:18:27.363Z,3.03
2017-09-12T04:20:55.188Z,3.60
2017-09-12T04:23:23.834Z,2.80
2017-09-12T04:25:52.507Z,2.03
2017-09-12T04:28:20.887Z,2.10
2017-09-12T04:30:49.137Z,1.83
2017-09-12T04:33:17.335Z,2.20
2017-09-12T04:35:45.223Z,2.20
2017-09-12T04:38:13.087Z,2.07
2017-09-12T04:40:41.068Z,1.90
2017-09-12T04:43:09.086Z,2.10
2017-09-12T04:45:37.205Z,2.53
2017-09-12T04:48:05.380Z,2.30
2017-09-12T04:50:33.529Z,2.20
2017-09-12T04:53:01.411Z,2.27
2017-09-12T04:55:29.362Z,2.30
2017-09-12T04:57:57.640Z,2.40
2017-09-12T05:00:25.518Z,3.50
2017-09-12T05:02:53.505Z,3.53
2017-09-12T05:05:21.714Z,2.50
2017-09-12T05:07:49.718Z,2.63
2017-09-12T05:10:17.791Z,3.27
2017-09-12T05:12:45.595Z,3.20
2017-09-12T05:15:13.438Z,2.83
2017-09-12T05:17:41.296Z,2.50
2017-09-12T05:20:09.098Z,2.40
2017-09-12T05:22:37.679Z,2.03
2017-09-12T05:25:06.254Z,2.40
2017-09-12T05:27:35.189Z,2.10
2017-09-12T05:30:03.132Z,2.67
2017-09-12T05:32:31.677Z,2.23
2017-09-12T05:35:00.178Z,2.53
2017-09-12T05:37:28.026Z,2.70
2017-09-12T05:39:55.891Z,2.83
2017-09-12T05:42:23.958Z,3.77
2017-09-12T05:44:52.542Z,3.27
2017-09-12T05:47:20.598Z,2.40
2017-09-12T05:49:49.401Z,2.53
2017-09-12T05:52:17.266Z,2.47
2017-09-12T05:54:45.154Z,3.40
2017-09-12T05:57:12.915Z,4.03
2017-09-12T05:59:41.448Z,2.43
2017-09-12T06:02:09.231Z,2.87
2017-09-12T06:04:37.139Z,2.80
2017-09-12T06:07:06.208Z,3.23
2017-09-12T06:09:34.184Z,2.90
2017-09-12T06:12:01.947Z,2.50
2017-09-12T06:14:30.095Z,2.40
2017-09-12T06:16:58.090Z,2.87
2017-09-12T06:19:26.052Z,2.90
2017-09-12T06:21:54.944Z,4.27
2017-09-12T06:24:22.998Z,3.73
2017-09-12T06:26:50.990Z,4.43
2017-09-12T06:29:19.563Z,4.43
2017-09-12T06:31:47.429Z,5.30
2017-09-12T06:34:15.199Z,5.60
2017-09-12T06:36:43.683Z,4.77
2017-09-12T06:39:11.427Z,4.57
2017-09-12T06:41:39.921Z,4.10
2017-09-12T06:44:07.894Z,5.20
2017-09-12T06:46:36.597Z,4.57
2017-09-12T06:49:04.336Z,4.40
2017-09-12T06:51:32.090Z,3.50
2017-09-12T06:53:59.827Z,3.70
2017-09-12T06:56:27.684Z,3.60
2017-09-12T06:58:55.446Z,4.47
2017-09-12T07:01:24.019Z,3.90
2017-09-12T07:03:51.826Z,4.80
2017-09-12T07:06:19.979Z,4.27
2017-09-12T07:08:48.516Z,5.27
2017-09-12T07:11:16.511Z,3.67
2017-09-12T07:13:45.035Z,4.30
2017-09-12T07:16:12.829Z,3.80
2017-09-12T07:18:40.687Z,5.80
2017-09-12T07:21:09.066Z,5.30
2017-09-12T07:23:36.828Z,4.43
2017-09-12T07:26:04.729Z,3.67
2017-09-12T07:28:33.367Z,3.60
2017-09-12T07:31:01.697Z,3.40
2017-09-12T07:33:30.189Z,3.17
2017-09-12T07:35:59.201Z,2.37
2017-09-12T07:38:27.506Z,2.70
2017-09-12T07:40:55.423Z,2.80
2017-09-12T07:43:23.643Z,2.60
2017-09-12T07:45:51.514Z,1.93
2017-09-12T07:48:19.463Z,2.00
2017-09-12T07:50:47.635Z,2.13
2017-09-12T07:53:15.395Z,2.10
2017-09-12T07:55:43.122Z,1.97
2017-09-12T07:58:11.771Z,2.07
2017-09-12T08:00:39.701Z,2.80
2017-09-12T08:03:07.497Z,2.60
2017-09-12T08:05:35.241Z,2.37
2017-09-12T08:08:04.142Z,2.70
2017-09-12T08:10:32.125Z,2.37
2017-09-12T08:13:01.523Z,3.00
2017-09-12T08:15:29.259Z,3.40
2017-09-12T08:17:57.069Z,3.03
2017-09-12T08:20:25.823Z,2.47
2017-09-12T08:22:53.922Z,2.07
2017-09-12T08:25:21.775Z,1.77
2017-09-12T08:27:49.648Z,1.47
2017-09-12T08:30:17.724Z,1.50
2017-09-12T08:32:47.392Z,2.00
2017-09-12T08:35:15.129Z,1.70
2017-09-12T08:37:43.660Z,1.70
2017-09-12T08:40:11.468Z,1.40
2017-09-12T08:42:40.161Z,1.13
2017-09-12T08:45:09.165Z,1.47
2017-09-12T08:47:38.418Z,1.10
2017-09-12T08:50:06.284Z,1.57
2017-09-12T08:52:34.029Z,2.07
2017-09-12T08:55:01.810Z,2.27
2017-09-12T08:57:29.882Z,2.70
2017-09-12T08:59:58.385Z,2.37
2017-09-12T09:02:26.424Z,1.50
2017-09-12T09:04:54.206Z,1.30
2017-09-12T09:07:21.983Z,1.80
2017-09-12T09:09:49.845Z,1.20
2017-09-12T09:12:17.753Z,1.10
2017-09-12T09:14:45.653Z,1.30
2017-09-12T09:17:14.896Z,1.07
2017-09-12T09:19:44.255Z,1.63
2017-09-12T09:22:12.113Z,0.90
2017-09-12T09:24:39.867Z,1.03
2017-09-12T09:27:07.610Z,1.33
2017-09-12T09:29:35.752Z,1.07
2017-09-12T09:32:04.706Z,1.23
2017-09-12T09:34:32.578Z,1.23
2017-09-12T09:37:00.535Z,1.40
2017-09-12T09:39:29.242Z,1.43
2017-09-12T09:41:57.113Z,2.17
2017-09-12T09:44:24.882Z,2.37
2017-09-12T09:46:53.029Z,1.80
2017-09-12T09:49:21.130Z,1.77
2017-09-12T09:51:49.185Z,3.53
2017-09-12T09:54:18.096Z,1.90
2017-09-12T09:56:47.180Z,1.97
2017-09-12T09:59:15.547Z,2.40
2017-09-12T10:01:43.514Z,1.60
2017-09-12T10:04:11.393Z,1.60
2017-09-12T10:06:39.197Z,1.77
2017-09-12T10:09:06.964Z,1.60
2017-09-12T10:11:35.584Z,1.83
2017-09-12T10:14:03.463Z,1.70
2017-09-12T10:16:31.422Z,4.80
2017-09-12T10:18:59.704Z,4.00
2017-09-12T10:21:27.976Z,3.10
2017-09-12T10:23:55.763Z,2.40
2017-09-12T10:26:23.730Z,1.83
2017-09-12T10:28:51.576Z,2.20
2017-09-12T10:31:19.503Z,1.40
2017-09-12T10:33:48.042Z,1.60
2017-09-12T10:36:16.011Z,1.40
2017-09-12T10:38:44.582Z,1.50
2017-09-12T10:41:14.361Z,1.93
2017-09-12T10:43:42.221Z,1.97
2017-09-12T10:46:11.126Z,1.80
2017-09-12T10:48:38.882Z,1.70
2017-09-12T10:51:06.898Z,1.47
2017-09-12T10:53:35.172Z,1.70
2017-09-12T10:56:03.227Z,1.03
2017-09-12T10:58:31.126Z,1.40
2017-09-12T11:00:58.974Z,1.13
2017-09-12T11:03:26.840Z,2.10
2017-09-12T11:05:54.910Z,1.83
2017-09-12T11:08:23.246Z,0.80
2017-09-12T11:10:51.154Z,1.40
2017-09-12T11:13:20.300Z,1.20
2017-09-12T11:15:48.118Z,1.10
2017-09-12T11:18:15.981Z,1.10
2017-09-12T11:20:44.448Z,0.90
2017-09-12T11:23:12.520Z,0.80
2017-09-12T11:25:40.491Z,1.33
2017-09-12T11:28:08.969Z,1.10
2017-09-12T11:30:36.941Z,1.10
2017-09-12T11:33:05.646Z,1.00
2017-09-12T11:35:33.512Z,1.20
2017-09-12T11:38:01.460Z,1.20
2017-09-12T11:40:29.548Z,1.27
2017-09-12T11:42:57.328Z,0.90
2017-09-12T11:45:25.893Z,0.97
2017-09-12T11:47:54.903Z,0.90
2017-09-12T11:50:23.428Z,1.10
2017-09-12T11:52:51.176Z,0.90
2017-09-12T11:55:19.819Z,1.13
2017-09-12T11:57:48.592Z,0.90
2017-09-12T12:00:16.576Z,0.80
2017-09-12T12:02:45.360Z,0.70
2017-09-12T12:05:14.650Z,0.93
2017-09-12T12:07:42.427Z,0.80
2017-09-12T12:10:10.382Z,1.17
2017-09-12T12:12:39.275Z,0.60
2017-09-12T12:15:08.264Z,0.77
2017-09-12T12:17:36.874Z,0.80
2017-09-12T12:20:04.730Z,1.00
2017-09-12T12:22:32.620Z,1.40
2017-09-12T12:25:01.203Z,0.77
2017-09-12T12:27:29.044Z,0.83
2017-09-12T12:29:58.057Z,0.73
2017-09-12T12:32:25.897Z,0.70
2017-09-12T12:34:53.655Z,0.80
2017-09-12T12:37:22.774Z,1.00
2017-09-12T12:39:51.640Z,0.90
2017-09-12T12:42:19.610Z,0.80
2017-09-12T12:44:47.664Z,0.77
2017-09-12T12:47:15.591Z,0.90
2017-09-12T12:49:44.246Z,1.20
2017-09-12T12:52:12.099Z,1.37
2017-09-12T12:54:39.993Z,1.27
2017-09-12T12:57:07.942Z,1.30
2017-09-12T12:59:35.907Z,1.30
2017-09-12T13:02:03.787Z,1.57
2017-09-12T13:04:31.652Z,1.40
2017-09-12T13:06:59.530Z,1.40
2017-09-12T13:09:27.484Z,0.93
2017-09-12T13:11:55.360Z,1.30
2017-09-12T13:14:24.214Z,1.40
2017-09-12T13:16:52.123Z,0.80
2017-09-12T13:19:19.897Z,1.00
2017-09-12T13:21:48.660Z,1.30
2017-09-12T13:24:16.532Z,1.40
2017-09-12T13:26:44.684Z,1.47
2017-09-12T13:29:12.676Z,2.00
2017-09-12T13:31:40.656Z,2.50
2017-09-12T13:34:08.820Z,1.30
2017-09-12T13:36:36.883Z,2.37
2017-09-12T13:39:04.742Z,3.20
2017-09-12T13:41:33.678Z,2.10
2017-09-12T13:44:02.331Z,1.63
2017-09-12T13:46:30.184Z,2.97
2017-09-12T13:48:58.062Z,2.10
2017-09-12T13:51:26.218Z,1.63
2017-09-12T13:53:54.200Z,1.80
2017-09-12T13:56:22.154Z,1.90
2017-09-12T13:58:50.146Z,1.03
2017-09-12T14:01:18.006Z,0.90
2017-09-12T14:03:45.931Z,1.10
2017-09-12T14:06:13.744Z,1.37
2017-09-12T14:08:41.814Z,1.40
2017-09-12T14:11:09.671Z,0.80
2017-09-12T14:13:37.533Z,0.83
2017-09-12T14:16:05.306Z,1.10
2017-09-12T14:18:33.244Z,0.87
2017-09-12T14:21:01.227Z,0.77
2017-09-12T14:23:29.210Z,0.90
2017-09-12T14:25:57.012Z,0.70
2017-09-12T14:28:25.555Z,1.53
2017-09-12T14:30:53.303Z,2.90
2017-09-12T14:33:21.181Z,1.10
2017-09-12T14:35:49.056Z,0.83
2017-09-12T14:38:16.921Z,0.93
2017-09-12T14:40:45.100Z,1.10
2017-09-12T14:43:13.174Z,1.60
2017-09-12T14:45:41.358Z,1.60
2017-09-12T14:48:09.165Z,1.50
2017-09-12T14:50:37.061Z,1.30
2017-09-12T14:53:05.617Z,1.20
2017-09-12T14:55:33.533Z,1.47
2017-09-12T14:58:01.519Z,5.27
2017-09-12T15:00:29.280Z,1.23
2017-09-12T15:02:57.125Z,1.10
2017-09-12T15:05:24.887Z,0.90
2017-09-12T15:07:52.699Z,1.03
2017-09-12T15:10:20.930Z,0.93
2017-09-12T15:12:49.103Z,1.30
2017-09-12T15:15:16.890Z,1.10
2017-09-12T15:17:44.732Z,1.60
2017-09-12T15:20:13.639Z,0.80
2017-09-12T15:22:41.593Z,1.10
2017-09-12T15:25:09.650Z,1.13
2017-09-12T15:27:37.512Z,0.93
2017-09-12T15:30:05.288Z,1.13
2017-09-12T15:32:33.086Z,1.33
2017-09-12T15:35:01.768Z,0.90
2017-09-12T15:37:30.324Z,1.00
2017-09-12T15:39:58.196Z,1.10
2017-09-12T15:42:26.246Z,6.33
2017-09-12T15:44:54.147Z,9.60
2017-09-12T15:47:21.939Z,1.60
2017-09-12T15:49:50.670Z,1.57
2017-09-12T15:52:18.631Z,1.70
2017-09-12T15:54:46.706Z,1.00
2017-09-12T15:57:15.329Z,1.40
2017-09-12T15:59:44.080Z,1.40
2017-09-12T16:02:11.856Z,1.10
2017-09-12T16:04:39.811Z,1.00
2017-09-12T16:07:07.776Z,1.00
2017-09-12T16:09:35.793Z,1.00
2017-09-12T16:12:04.313Z,1.23
2017-09-12T16:14:32.046Z,1.10
2017-09-12T16:17:01.014Z,0.93
2017-09-12T16:19:28.954Z,3.10
2017-09-12T16:21:57.148Z,1.17
2017-09-12T16:24:25.227Z,1.33
2017-09-12T16:26:53.909Z,1.07
2017-09-12T16:29:21.756Z,1.93
2017-09-12T16:31:49.631Z,1.30
2017-09-12T16:34:17.795Z,2.77
2017-09-12T16:36:45.773Z,10.40
2017-09-12T16:39:13.644Z,2.67
2017-09-12T16:41:42.333Z,20.43
2017-09-12T16:44:11.222Z,1.00
2017-09-12T16:46:40.606Z,1.10
2017-09-12T16:49:08.468Z,1.97
2017-09-12T16:51:36.545Z,1.13
2017-09-12T16:54:05.129Z,1.20
2017-09-12T16:56:33.206Z,1.17
2017-09-12T16:59:01.099Z,9.40
2017-09-12T17:01:29.063Z,4.57
2017-09-12T17:03:58.342Z,4.90
2017-09-12T17:06:26.256Z,1.80
2017-09-12T17:08:55.026Z,1.33
2017-09-12T17:11:23.776Z,1.30
2017-09-12T17:13:51.778Z,1.20
2017-09-12T17:16:19.919Z,1.53
2017-09-12T17:18:48.104Z,1.80
2017-09-12T17:21:15.968Z,5.90
2017-09-12T17:23:43.845Z,1.90
2017-09-12T17:26:11.674Z,2.30
2017-09-12T17:28:39.770Z,1.87
2017-09-12T17:31:07.569Z,1.97
2017-09-12T17:33:36.334Z,2.87
2017-09-12T17:36:04.900Z,2.07
2017-09-12T17:38:33.454Z,2.00
2017-09-12T17:41:01.758Z,3.13
2017-09-12T17:43:30.575Z,2.40
2017-09-12T17:45:59.561Z,3.90
2017-09-12T17:48:27.433Z,5.13
2017-09-12T17:50:55.315Z,9.30
2017-09-12T17:53:24.577Z,3.33
2017-09-12T17:55:53.258Z,3.00
2017-09-12T17:58:21.535Z,9.03
2017-09-12T18:00:51.392Z,15.57
2017-09-12T18:03:20.046Z,36.27
2017-09-12T18:05:48.884Z,27.03
2017-09-12T18:08:17.221Z,5.00
2017-09-12T18:10:45.883Z,4.37
2017-09-12T18:13:13.770Z,4.60
2017-09-12T18:15:41.742Z,7.03
2017-09-12T18:18:09.811Z,6.23
2017-09-12T18:20:37.882Z,2.87
2017-09-12T18:23:05.769Z,2.30
2017-09-12T18:25:34.298Z,1.80
2017-09-12T18:28:02.287Z,2.37
2017-09-12T18:30:30.172Z,2.00
2017-09-12T18:32:58.041Z,1.83
2017-09-12T18:35:25.858Z,1.90
2017-09-12T18:37:54.280Z,1.80
2017-09-12T18:40:22.225Z,2.00
2017-09-12T18:42:50.211Z,2.10
2017-09-12T18:45:18.205Z,2.23
2017-09-12T18:47:46.135Z,2.40
2017-09-12T18:50:14.433Z,2.07
2017-09-12T18:52:42.589Z,2.00
2017-09-12T18:55:10.894Z,2.37
2017-09-12T18:57:38.839Z,2.73
2017-09-12T19:00:06.732Z,3.00
2017-09-12T19:02:35.405Z,1.97
2017-09-12T19:05:03.476Z,2.00
2017-09-12T19:07:31.421Z,2.13
2017-09-12T19:09:59.426Z,1.97
2017-09-12T19:12:28.093Z,1.97
2017-09-12T19:14:56.044Z,2.30
2017-09-12T19:17:23.931Z,2.07
2017-09-12T19:19:51.902Z,1.80
2017-09-12T19:22:19.865Z,1.90
2017-09-12T19:24:47.734Z,2.00
2017-09-12T19:27:16.558Z,2.20
2017-09-12T19:29:45.294Z,2.73
2017-09-12T19:32:13.178Z,2.23
2017-09-12T19:34:42.169Z,2.50
2017-09-12T19:37:10.118Z,1.67
2017-09-12T19:39:38.821Z,1.53
2017-09-12T19:42:06.691Z,1.73
2017-09-12T19:44:34.544Z,1.63
2017-09-12T19:47:03.845Z,1.50
2017-09-12T19:49:32.540Z,2.40
2017-09-12T19:52:00.405Z,2.17
2017-09-12T19:54:28.361Z,2.20
2017-09-12T19:56:56.342Z,2.20
2017-09-12T19:59:24.216Z,2.10
2017-09-12T20:01:52.139Z,2.10
2017-09-12T20:04:20.057Z,1.87
2017-09-12T20:06:47.935Z,4.43
2017-09-12T20:09:16.581Z,6.47
2017-09-12T20:11:44.500Z,7.47
2017-09-12T20:14:13.102Z,6.97
2017-09-12T20:16:41.013Z,7.50
2017-09-12T20:19:08.781Z,5.70
2017-09-12T20:21:36.642Z,4.43
2017-09-12T20:24:04.521Z,3.70
2017-09-12T20:26:32.429Z,3.93
2017-09-12T20:29:00.255Z,3.30
2017-09-12T20:31:28.133Z,3.70
2017-09-12T20:33:56.664Z,3.90
2017-09-12T20:36:24.562Z,4.07
2017-09-12T20:38:52.333Z,3.53
2017-09-12T20:41:20.379Z,2.93
2017-09-12T20:43:48.252Z,3.47
2017-09-12T20:46:16.012Z,3.67
2017-09-12T20:48:43.770Z,3.50
2017-09-12T20:51:11.760Z,3.27
2017-09-12T20:53:39.565Z,2.30
2017-09-12T20:56:08.192Z,2.83
2017-09-12T20:58:36.074Z,3.70
2017-09-12T21:01:03.948Z,2.57
2017-09-12T21:03:31.823Z,2.50
2017-09-12T21:05:59.866Z,2.90
2017-09-12T21:08:32.365Z,3.17
2017-09-12T21:11:00.346Z,2.83
2017-09-12T21:13:28.993Z,2.57
2017-09-12T21:15:56.927Z,3.13
2017-09-12T21:18:24.797Z,2.10
2017-09-12T21:20:53.232Z,2.53
2017-09-12T21:23:21.099Z,2.50
2017-09-12T21:25:48.844Z,2.40
2017-09-12T21:28:16.718Z,2.40
2017-09-12T21:30:44.584Z,1.73
2017-09-12T21:33:12.452Z,2.20
2017-09-12T21:35:40.319Z,2.50
2017-09-12T21:38:08.783Z,2.40
2017-09-12T21:40:36.680Z,2.50
2017-09-12T21:43:04.595Z,2.80
2017-09-12T21:45:32.585Z,2.80
2017-09-12T21:48:00.962Z,2.40
2017-09-12T21:50:28.745Z,2.60
2017-09-12T21:52:56.615Z,2.23
2017-09-12T21:55:24.461Z,2.70
2017-09-12T21:57:53.059Z,2.77
2017-09-12T22:00:20.928Z,2.43
2017-09-12T22:02:48.880Z,2.17
2017-09-12T22:05:16.764Z,2.40
2017-09-12T22:07:44.596Z,2.17
2017-09-12T22:10:12.704Z,3.17
2017-09-12T22:12:40.571Z,3.73
2017-09-12T22:15:08.432Z,3.40
2017-09-12T22:17:36.304Z,3.10
2017-09-12T22:20:04.987Z,3.10
2017-09-12T22:22:32.770Z,3.53
2017-09-12T22:25:00.726Z,3.17
2017-09-12T22:27:28.589Z,3.73
2017-09-12T22:29:56.452Z,3.37
2017-09-12T22:32:24.224Z,2.57
2017-09-12T22:34:52.184Z,2.67
2017-09-12T22:37:19.923Z,3.23
2017-09-12T22:39:47.709Z,2.57
2017-09-12T22:42:15.572Z,3.20
2017-09-12T22:44:43.327Z,2.63
2017-09-12T22:47:11.115Z,2.73
2017-09-12T22:49:39.155Z,2.90
2017-09-12T22:52:07.055Z,3.03
2017-09-12T22:54:35.711Z,3.40
2017-09-12T22:57:03.490Z,3.03
2017-09-12T22:59:31.363Z,3.27
2017-09-12T23:02:00.351Z,2.63
2017-09-12T23:04:28.131Z,2.87
2017-09-12T23:06:55.887Z,2.70
2017-09-12T23:09:23.870Z,2.70
2017-09-12T23:11:51.713Z,3.43
2017-09-12T23:14:19.464Z,3.50
2017-09-12T23:16:47.207Z,3.23
2017-09-12T23:19:15.090Z,3.63
2017-09-12T23:21:42.870Z,3.60
2017-09-12T23:24:11.672Z,3.67
2017-09-12T23:26:39.532Z,3.77
2017-09-12T23:29:07.302Z,3.43
2017-09-12T23:31:36.572Z,4.73
2017-09-12T23:34:04.458Z,2.20
2017-09-12T23:36:32.424Z,2.80
2017-09-12T23:39:02.017Z,2.80
2017-09-12T23:41:31.379Z,2.20
2017-09-12T23:44:00.116Z,2.67
2017-09-12T23:46:27.881Z,2.23
2017-09-12T23:48:55.856Z,2.50
2017-09-12T23:51:23.819Z,2.60
2017-09-12T23:53:51.573Z,2.63
2017-09-12T23:56:19.317Z,2.00
2017-09-12T23:58:47.158Z,3.00
